Time,TemperatureF,DewpointF,PressureIn,WindDirection,WindDirectionDegrees,WindSpeedMPH,WindSpeedGustMPH,Humidity,HourlyPrecipIn,Conditions,Clouds,dailyrainin,SoftwareType,DateUTC
2013-05-13 00:01:00,49.0,31.0,30.28,SW,223,0.0,0.0,49,0.00,,,0.00,,2013-05-13 07:01:00,
2013-05-13 00:11:00,49.0,31.0,30.28,SW,223,0.0,0.0,49,0.00,,,0.00,,2013-05-13 07:11:00,
2013-05-13 00:21:00,48.0,27.0,30.28,SW,223,0.0,0.0,44,0.00,,,0.00,,2013-05-13 07:21:00,
2013-05-13 00:31:00,48.0,28.0,30.28,SW,223,0.0,0.0,45,0.00,,,0.00,,2013-05-13 07:31:00,
2013-05-13 00:41:00,48.0,27.0,30.28,SW,223,0.0,0.0,44,0.00,,,0.00,,2013-05-13 07:41:00,
2013-05-13 00:51:00,48.0,27.0,30.28,SW,223,0.0,0.0,44,0.00,,,0.00,,2013-05-13 07:51:00,
2013-05-13 01:01:00,46.0,25.0,30.28,SW,223,0.0,0.0,44,0.00,,,0.00,,2013-05-13 08:01:00,
2013-05-13 01:11:00,46.0,25.0,30.28,SW,223,0.0,0.0,44,0.00,,,0.00,,2013-05-13 08:11:00,
2013-05-13 01:21:00,46.0,25.0,30.27,SW,223,0.0,0.0,44,0.00,,,0.00,,2013-05-13 08:21:00,
2013-05-13 01:31:00,46.0,25.0,30.27,SW,223,0.0,0.0,44,0.00,,,0.00,,2013-05-13 08:31:00,
2013-05-13 01:41:00,46.0,25.0,30.27,SW,223,0.0,0.0,44,0.00,,,0.00,,2013-05-13 08:41:00,
2013-05-13 01:51:00,46.0,25.0,30.27,SW,223,0.0,0.0,44,0.00,,,0.00,,2013-05-13 08:51:00,
2013-05-13 02:01:00,45.0,24.0,30.27,SW,223,0.0,0.0,44,0.00,,,0.00,,2013-05-13 09:01:00,
2013-05-13 02:11:00,45.0,24.0,30.27,SW,223,0.0,0.0,44,0.00,,,0.00,,2013-05-13 09:11:00,
2013-05-13 02:21:00,45.0,28.0,30.27,SW,223,0.0,0.0,51,0.00,,,0.00,,2013-05-13 09:21:00,
2013-05-13 02:32:00,44.0,27.0,30.27,SW,223,0.0,0.0,51,0.00,,,0.00,,2013-05-13 09:32:00,
2013-05-13 02:42:00,44.0,27.0,30.27,SW,223,0.0,0.0,51,0.00,,,0.00,,2013-05-13 09:42:00,
2013-05-13 02:52:00,45.0,28.0,30.26,SW,223,0.0,0.0,51,0.00,,,0.00,,2013-05-13 09:52:00,
2013-05-13 03:02:00,46.0,30.0,30.26,SW,223,0.0,0.0,54,0.00,,,0.00,,2013-05-13 10:02:00,
2013-05-13 03:12:00,46.0,30.0,30.26,SW,223,0.0,0.0,54,0.00,,,0.00,,2013-05-13 10:12:00,
2013-05-13 03:22:00,46.0,30.0,30.26,SW,223,0.0,0.0,54,0.00,,,0.00,,2013-05-13 10:22:00,
2013-05-13 03:32:00,45.0,29.0,30.26,SW,223,0.0,0.0,54,0.00,,,0.00,,2013-05-13 10:32:00,
2013-05-13 03:42:00,45.0,29.0,30.26,SW,223,0.0,0.0,54,0.00,,,0.00,,2013-05-13 10:42:00,
2013-05-13 03:52:00,45.0,31.0,30.26,SW,223,0.0,0.0,58,0.00,,,0.00,,2013-05-13 10:52:00,
2013-05-13 04:02:00,44.0,30.0,30.26,SW,223,0.0,0.0,58,0.00,,,0.00,,2013-05-13 11:02:00,
2013-05-13 04:12:00,44.0,30.0,30.26,SW,223,0.0,0.0,58,0.00,,,0.00,,2013-05-13 11:12:00,
2013-05-13 04:21:00,44.0,30.0,30.25,SW,223,0.0,0.0,58,0.00,,,0.00,,2013-05-13 11:21:00,
2013-05-13 04:32:00,43.0,29.0,30.25,SW,223,0.0,0.0,58,0.00,,,0.00,,2013-05-13 11:32:00,
2013-05-13 04:41:00,43.0,29.0,30.25,SW,223,0.0,0.0,58,0.00,,,0.00,,2013-05-13 11:41:00,
2013-05-13 04:51:00,43.0,29.0,30.25,SW,223,0.0,0.0,58,0.00,,,0.00,,2013-05-13 11:51:00,
2013-05-13 05:01:00,43.0,29.0,30.25,SW,223,0.0,0.0,58,0.00,,,0.00,,2013-05-13 12:01:00,
2013-05-13 05:32:00,41.0,30.0,30.25,SW,223,0.0,0.0,65,0.00,,,0.00,,2013-05-13 12:32:00,
2013-05-13 05:42:00,41.0,30.0,30.25,SW,223,0.0,0.0,65,0.00,,,0.00,,2013-05-13 12:42:00,
2013-05-13 05:52:00,41.0,30.0,30.25,SW,223,0.0,2.0,65,0.00,,,0.00,,2013-05-13 12:52:00,
2013-05-13 06:01:00,41.0,32.0,30.26,SW,223,0.0,1.0,69,0.00,,,0.00,,2013-05-13 13:01:00,
2013-05-13 06:11:00,41.0,32.0,30.26,SW,223,0.0,1.0,69,0.00,,,0.00,,2013-05-13 13:11:00,
2013-05-13 06:21:00,41.0,33.0,30.26,SW,223,0.0,0.0,73,0.00,,,0.00,,2013-05-13 13:21:00,
2013-05-13 06:31:00,42.0,34.0,30.27,SW,223,0.0,0.0,73,0.00,,,0.00,,2013-05-13 13:31:00,
2013-05-13 06:41:00,42.0,34.0,30.27,SW,223,0.0,0.0,73,0.00,,,0.00,,2013-05-13 13:41:00,
2013-05-13 06:52:00,42.0,34.0,30.27,SW,223,0.0,0.0,73,0.00,,,0.00,,2013-05-13 13:52:00,
2013-05-13 07:01:00,42.0,34.0,30.27,SW,223,0.0,0.0,73,0.00,,,0.00,,2013-05-13 14:01:00,
2013-05-13 07:11:00,42.0,34.0,30.27,SW,223,0.0,0.0,73,0.00,,,0.00,,2013-05-13 14:11:00,
2013-05-13 07:22:00,44.0,33.0,30.27,SW,223,0.0,0.0,65,0.00,,,0.00,,2013-05-13 14:22:00,
2013-05-13 07:31:00,48.0,34.0,30.27,SW,223,0.0,0.0,58,0.00,,,0.00,,2013-05-13 14:31:00,
2013-05-13 07:41:00,48.0,34.0,30.27,SW,223,0.0,0.0,58,0.00,,,0.00,,2013-05-13 14:41:00,
2013-05-13 07:51:00,50.0,35.0,30.27,SW,223,0.0,0.0,57,0.00,,,0.00,,2013-05-13 14:51:00,
2013-05-13 08:01:00,53.0,38.0,30.27,SW,223,0.0,0.0,57,0.00,,,0.00,,2013-05-13 15:01:00,
2013-05-13 08:11:00,53.0,38.0,30.27,SW,223,0.0,0.0,57,0.00,,,0.00,,2013-05-13 15:11:00,
2013-05-13 08:21:00,56.0,41.0,30.28,SW,223,0.0,0.0,57,0.00,,,0.00,,2013-05-13 15:21:00,
2013-05-13 08:31:00,60.0,45.0,30.28,SW,223,0.0,0.0,57,0.00,,,0.00,,2013-05-13 15:31:00,
2013-05-13 08:52:00,62.0,34.0,30.28,SW,223,0.0,0.0,35,0.00,,,0.00,,2013-05-13 15:52:00,
2013-05-13 09:03:00,68.0,25.0,30.28,SSW,196,0.0,1.0,20,0.00,,,0.00,,2013-05-13 16:03:00,
2013-05-13 09:11:00,68.0,25.0,30.28,SSW,196,0.0,1.0,20,0.00,,,0.00,,2013-05-13 16:11:00,
2013-05-13 09:21:00,70.0,23.0,30.28,South,179,0.0,2.0,17,0.00,,,0.00,,2013-05-13 16:21:00,
2013-05-13 09:33:00,72.0,23.0,30.28,SE,127,0.0,7.0,16,0.00,,,0.00,,2013-05-13 16:33:00,
2013-05-13 09:42:00,72.0,23.0,30.28,South,189,1.0,7.0,16,0.00,,,0.00,,2013-05-13 16:42:00,
2013-05-13 09:52:00,72.0,23.0,30.28,South,189,1.0,7.0,16,0.00,,,0.00,,2013-05-13 16:52:00,
2013-05-13 10:02:00,73.0,24.0,30.28,South,184,0.0,2.0,16,0.00,,,0.00,,2013-05-13 17:02:00,
2013-05-13 10:11:00,73.0,24.0,30.28,South,184,0.0,2.0,16,0.00,,,0.00,,2013-05-13 17:11:00,
2013-05-13 10:21:00,73.0,24.0,30.28,SW,217,0.0,4.0,16,0.00,,,0.00,,2013-05-13 17:21:00,
2013-05-13 10:32:00,74.0,20.0,30.27,WSW,254,2.0,5.0,13,0.00,,,0.00,,2013-05-13 17:32:00,
2013-05-13 10:41:00,74.0,20.0,30.27,WSW,254,2.0,5.0,13,0.00,,,0.00,,2013-05-13 17:41:00,
2013-05-13 10:54:00,75.0,21.0,30.27,SW,224,0.0,5.0,13,0.00,,,0.00,,2013-05-13 17:54:00,
2013-05-13 11:03:00,76.0,22.0,30.27,North,0,0.0,0.0,13,0.00,,,0.00,,2013-05-13 18:03:00,
2013-05-13 11:12:00,76.0,22.0,30.27,North,0,0.0,0.0,13,0.00,,,0.00,,2013-05-13 18:12:00,
2013-05-13 11:22:00,76.0,22.0,30.27,SSW,200,2.0,5.0,13,0.00,,,0.00,,2013-05-13 18:22:00,
2013-05-13 11:32:00,75.0,24.0,30.27,NNW,332,2.0,6.0,15,0.00,,,0.00,,2013-05-13 18:32:00,
2013-05-13 11:42:00,76.0,28.0,30.27,WSW,247,1.0,5.0,17,0.00,,,0.00,,2013-05-13 18:42:00,
2013-05-13 11:51:00,76.0,28.0,30.27,WSW,247,1.0,5.0,17,0.00,,,0.00,,2013-05-13 18:51:00,
2013-05-13 12:01:00,77.0,27.0,30.27,SW,220,1.0,6.0,16,0.00,,,0.00,,2013-05-13 19:01:00,
2013-05-13 12:11:00,77.0,27.0,30.27,SW,220,1.0,6.0,16,0.00,,,0.00,,2013-05-13 19:11:00,
2013-05-13 12:21:00,76.0,27.0,30.27,WSW,237,2.0,7.0,16,0.00,,,0.00,,2013-05-13 19:21:00,
2013-05-13 12:32:00,76.0,27.0,30.27,SSE,168,2.0,4.0,16,0.00,,,0.00,,2013-05-13 19:32:00,
2013-05-13 12:43:00,75.0,27.0,30.27,SW,229,2.0,12.0,17,0.00,,,0.00,,2013-05-13 19:43:00,
2013-05-13 12:52:00,75.0,27.0,30.27,SW,229,2.0,12.0,17,0.00,,,0.00,,2013-05-13 19:52:00,
2013-05-13 13:01:00,77.0,27.0,30.27,SSW,192,1.0,5.0,16,0.00,,,0.00,,2013-05-13 20:01:00,
2013-05-13 13:11:00,77.0,27.0,30.27,SSW,192,1.0,5.0,16,0.00,,,0.00,,2013-05-13 20:11:00,
2013-05-13 13:23:00,77.0,27.0,30.27,SW,229,2.0,12.0,16,0.00,,,0.00,,2013-05-13 20:23:00,
2013-05-13 13:33:00,77.0,27.0,30.27,WNW,296,0.0,2.0,16,0.00,,,0.00,,2013-05-13 20:33:00,
2013-05-13 13:44:00,77.0,27.0,30.27,WNW,296,0.0,2.0,16,0.00,,,0.00,,2013-05-13 20:44:00,
2013-05-13 13:53:00,76.0,27.0,30.27,SW,226,1.0,2.0,16,0.00,,,0.00,,2013-05-13 20:53:00,
2013-05-13 14:02:00,77.0,27.0,30.27,SW,227,0.0,0.0,16,0.00,,,0.00,,2013-05-13 21:02:00,
2013-05-13 14:14:00,77.0,27.0,30.27,SW,227,0.0,0.0,16,0.00,,,0.00,,2013-05-13 21:14:00,
2013-05-13 14:22:00,75.0,27.0,30.26,SW,224,2.0,6.0,17,0.00,,,0.00,,2013-05-13 21:22:00,
2013-05-13 14:33:00,75.0,27.0,30.25,WSW,254,3.0,9.0,17,0.00,,,0.00,,2013-05-13 21:33:00,
2013-05-13 14:43:00,75.0,27.0,30.25,WSW,254,3.0,9.0,17,0.00,,,0.00,,2013-05-13 21:43:00,
2013-05-13 14:53:00,76.0,28.0,30.25,SW,216,0.0,9.0,17,0.00,,,0.00,,2013-05-13 21:53:00,
2013-05-13 15:02:00,77.0,29.0,30.25,SSW,213,1.0,0.0,17,0.00,,,0.00,,2013-05-13 22:02:00,
2013-05-13 15:12:00,77.0,29.0,30.25,SSW,213,1.0,0.0,17,0.00,,,0.00,,2013-05-13 22:12:00,
2013-05-13 15:22:00,77.0,27.0,30.24,SW,232,1.0,4.0,16,0.00,,,0.00,,2013-05-13 22:22:00,
2013-05-13 15:32:00,77.0,27.0,30.24,SSW,198,0.0,4.0,16,0.00,,,0.00,,2013-05-13 22:32:00,
2013-05-13 15:42:00,76.0,28.0,30.24,SW,236,2.0,7.0,17,0.00,,,0.00,,2013-05-13 22:42:00,
2013-05-13 15:52:00,76.0,28.0,30.24,SW,236,2.0,7.0,17,0.00,,,0.00,,2013-05-13 22:52:00,
2013-05-13 16:01:00,77.0,29.0,30.23,NNW,336,1.0,0.0,17,0.00,,,0.00,,2013-05-13 23:01:00,
2013-05-13 16:12:00,77.0,29.0,30.23,NNW,336,1.0,0.0,17,0.00,,,0.00,,2013-05-13 23:12:00,
2013-05-13 16:23:00,77.0,27.0,30.22,SW,227,2.0,5.0,16,0.00,,,0.00,,2013-05-13 23:23:00,
2013-05-13 16:33:00,76.0,29.0,30.22,SSW,205,0.0,4.0,18,0.00,,,0.00,,2013-05-13 23:33:00,
2013-05-13 16:42:00,76.0,29.0,30.22,SSW,205,0.0,4.0,18,0.00,,,0.00,,2013-05-13 23:42:00,
2013-05-13 16:53:00,76.0,29.0,30.22,WSW,248,2.0,6.0,18,0.00,,,0.00,,2013-05-13 23:53:00,
2013-05-13 17:02:00,75.0,30.0,30.22,WSW,237,1.0,5.0,19,0.00,,,0.00,,2013-05-14 00:02:00,
2013-05-13 17:12:00,75.0,30.0,30.22,WSW,237,1.0,5.0,19,0.00,,,0.00,,2013-05-14 00:12:00,
2013-05-13 17:22:00,75.0,29.0,30.22,SSW,205,1.0,6.0,18,0.00,,,0.00,,2013-05-14 00:22:00,
2013-05-13 17:31:00,75.0,30.0,30.22,South,182,3.0,6.0,19,0.00,,,0.00,,2013-05-14 00:31:00,
2013-05-13 17:41:00,75.0,30.0,30.22,South,182,3.0,6.0,19,0.00,,,0.00,,2013-05-14 00:41:00,
2013-05-13 17:51:00,73.0,32.0,30.21,SW,234,6.0,11.0,22,0.00,,,0.00,,2013-05-14 00:51:00,
2013-05-13 18:01:00,72.0,31.0,30.21,South,189,2.0,7.0,22,0.00,,,0.00,,2013-05-14 01:01:00,
2013-05-13 18:11:00,72.0,31.0,30.21,South,189,2.0,7.0,22,0.00,,,0.00,,2013-05-14 01:11:00,
2013-05-13 18:21:00,71.0,30.0,30.21,South,181,4.0,13.0,22,0.00,,,0.00,,2013-05-14 01:21:00,
2013-05-13 18:31:00,70.0,30.0,30.21,South,179,2.0,6.0,23,0.00,,,0.00,,2013-05-14 01:31:00,
2013-05-13 18:43:00,70.0,30.0,30.21,South,179,2.0,6.0,23,0.00,,,0.00,,2013-05-14 01:43:00,
2013-05-13 18:52:00,70.0,30.0,30.21,SW,224,2.0,6.0,23,0.00,,,0.00,,2013-05-14 01:52:00,
2013-05-13 19:02:00,68.0,29.0,30.21,WSW,244,1.0,7.0,23,0.00,,,0.00,,2013-05-14 02:02:00,
2013-05-13 19:11:00,67.0,28.0,30.21,SW,224,1.0,1.0,23,0.00,,,0.00,,2013-05-14 02:11:00,
2013-05-13 19:21:00,67.0,28.0,30.21,SW,224,1.0,1.0,23,0.00,,,0.00,,2013-05-14 02:21:00,
2013-05-13 19:31:00,67.0,28.0,30.21,SW,217,1.0,5.0,23,0.00,,,0.00,,2013-05-14 02:31:00,
2013-05-13 19:42:00,67.0,28.0,30.21,SW,217,1.0,5.0,23,0.00,,,0.00,,2013-05-14 02:42:00,
2013-05-13 19:51:00,66.0,28.0,30.21,SW,216,0.0,2.0,24,0.00,,,0.00,,2013-05-14 02:51:00,
2013-05-13 20:01:00,65.0,29.0,30.21,WSW,240,1.0,5.0,26,0.00,,,0.00,,2013-05-14 03:01:00,
2013-05-13 20:11:00,65.0,29.0,30.21,WSW,240,1.0,5.0,26,0.00,,,0.00,,2013-05-14 03:11:00,
2013-05-13 20:21:00,64.0,28.0,30.21,SW,234,0.0,1.0,26,0.00,,,0.00,,2013-05-14 03:21:00,
2013-05-13 20:32:00,63.0,29.0,30.22,South,191,0.0,2.0,27,0.00,,,0.00,,2013-05-14 03:32:00,
2013-05-13 20:42:00,63.0,29.0,30.22,South,191,0.0,2.0,27,0.00,,,0.00,,2013-05-14 03:42:00,
2013-05-13 20:53:00,62.0,29.0,30.22,South,191,0.0,0.0,28,0.00,,,0.00,,2013-05-14 03:53:00,
2013-05-13 21:02:00,61.0,28.0,30.22,SSW,203,0.0,4.0,28,0.00,,,0.00,,2013-05-14 04:02:00,
2013-05-13 21:12:00,61.0,28.0,30.22,SSW,203,0.0,4.0,28,0.00,,,0.00,,2013-05-14 04:12:00,
2013-05-13 21:22:00,59.0,27.0,30.22,SW,226,0.0,0.0,29,0.00,,,0.00,,2013-05-14 04:22:00,
2013-05-13 21:32:00,58.0,25.0,30.22,SW,226,0.0,0.0,28,0.00,,,0.00,,2013-05-14 04:32:00,
2013-05-13 21:42:00,58.0,25.0,30.22,SW,226,0.0,0.0,28,0.00,,,0.00,,2013-05-14 04:42:00,
2013-05-13 21:53:00,57.0,27.0,30.22,SW,226,0.0,0.0,32,0.00,,,0.00,,2013-05-14 04:53:00,
2013-05-13 22:01:00,56.0,29.0,30.22,SW,226,0.0,0.0,35,0.00,,,0.00,,2013-05-14 05:01:00,
2013-05-13 22:12:00,56.0,29.0,30.22,SW,226,0.0,0.0,35,0.00,,,0.00,,2013-05-14 05:12:00,
2013-05-13 22:21:00,55.0,29.0,30.22,SW,226,0.0,0.0,37,0.00,,,0.00,,2013-05-14 05:21:00,
2013-05-13 22:32:00,54.0,28.0,30.22,SW,226,0.0,0.0,37,0.00,,,0.00,,2013-05-14 05:32:00,
2013-05-13 22:42:00,53.0,28.0,30.23,SW,226,0.0,0.0,38,0.00,,,0.00,,2013-05-14 05:42:00,
2013-05-13 22:52:00,53.0,28.0,30.23,SW,226,0.0,0.0,38,0.00,,,0.00,,2013-05-14 05:52:00,
2013-05-13 23:01:00,53.0,29.0,30.22,SW,226,0.0,0.0,40,0.00,,,0.00,,2013-05-14 06:01:00,
2013-05-13 23:12:00,53.0,29.0,30.22,SW,226,0.0,0.0,40,0.00,,,0.00,,2013-05-14 06:12:00,
2013-05-13 23:21:00,53.0,28.0,30.22,SW,226,0.0,0.0,38,0.00,,,0.00,,2013-05-14 06:21:00,
2013-05-13 23:31:00,53.0,28.0,30.22,SW,226,0.0,0.0,38,0.00,,,0.00,,2013-05-14 06:31:00,
2013-05-13 23:42:00,53.0,28.0,30.22,SW,226,0.0,0.0,38,0.00,,,0.00,,2013-05-14 06:42:00,
2013-05-13 23:51:00,53.0,28.0,30.22,SW,226,0.0,0.0,38,0.00,,,0.00,,2013-05-14 06:51:00,